createdAt,value
2022-11-28T00:01:41.367Z,4.84
2022-11-28T00:04:10.814Z,4.82
2022-11-28T00:06:45.695Z,4.80
2022-11-28T00:09:15.083Z,4.77
2022-11-28T05:00:58.503Z,4.23
2022-11-28T05:03:29.579Z,4.07
2022-11-28T05:05:58.113Z,3.83
2022-11-28T05:08:26.465Z,3.61
2022-11-28T05:10:54.951Z,3.50
2022-11-28T05:13:23.153Z,3.41
2022-11-28T05:15:51.630Z,3.31
2022-11-28T05:18:19.898Z,3.20
2022-11-28T05:20:48.771Z,2.99
2022-11-28T05:23:17.050Z,2.81
2022-11-28T05:25:45.251Z,2.72
2022-11-28T05:28:13.425Z,2.71
2022-11-28T05:30:41.759Z,2.71
2022-11-28T05:33:10.088Z,2.70
2022-11-28T05:35:41.175Z,2.73
2022-11-28T05:38:13.402Z,2.76
2022-11-28T05:40:44.436Z,2.70
2022-11-28T05:43:13.424Z,2.63
2022-11-28T05:45:42.849Z,2.60
2022-11-28T05:48:14.024Z,2.59
2022-11-28T05:50:42.939Z,2.60
2022-11-28T05:53:11.727Z,2.57
2022-11-28T05:55:41.094Z,2.56
2022-11-28T05:58:09.832Z,2.55
2022-11-28T06:00:38.448Z,2.56
2022-11-28T06:03:06.746Z,2.51
2022-11-28T06:05:42.692Z,2.48
2022-11-28T06:08:12.861Z,2.49
2022-11-28T06:10:41.598Z,2.46
2022-11-28T06:13:09.798Z,2.49
2022-11-28T06:15:42.598Z,2.45
2022-11-28T06:18:11.036Z,2.34
2022-11-28T06:20:39.381Z,2.35
2022-11-28T06:23:07.616Z,2.37
2022-11-28T06:25:35.840Z,2.39
2022-11-28T06:28:04.875Z,2.39
2022-11-28T06:30:33.133Z,2.39
2022-11-28T06:33:02.689Z,2.37
2022-11-28T06:35:31.079Z,2.34
2022-11-28T06:37:59.352Z,2.36
2022-11-28T06:40:27.566Z,2.41
2022-11-28T06:42:56.069Z,2.44
2022-11-28T06:45:24.258Z,2.42
2022-11-28T06:47:52.407Z,2.38
2022-11-28T06:50:20.682Z,2.38
2022-11-28T06:52:49.160Z,2.32
2022-11-28T06:55:17.760Z,2.36
2022-11-28T06:57:46.207Z,2.39
2022-11-28T07:00:15.071Z,2.46
2022-11-28T07:02:43.302Z,2.52
2022-11-28T07:05:11.941Z,2.54
2022-11-28T07:07:53.360Z,2.53
2022-11-28T07:10:22.952Z,2.57
2022-11-28T07:13:05.218Z,2.60
2022-11-28T07:15:33.877Z,2.53
2022-11-28T07:18:02.187Z,2.53
2022-11-28T07:20:30.709Z,2.53
2022-11-28T07:22:59.119Z,2.59
2022-11-28T07:25:27.480Z,2.68
2022-11-28T07:27:55.718Z,2.74
2022-11-28T07:30:23.960Z,2.79
2022-11-28T07:32:52.293Z,2.77
2022-11-28T07:35:20.607Z,2.74
2022-11-28T07:37:49.001Z,2.74
2022-11-28T07:40:19.868Z,2.72
2022-11-28T07:42:48.938Z,2.75
2022-11-28T07:45:17.203Z,2.82
2022-11-28T07:47:45.457Z,2.88
2022-11-28T07:50:13.638Z,2.88
2022-11-28T07:52:41.953Z,2.85
2022-11-28T07:55:10.437Z,2.87
2022-11-28T07:57:39.390Z,2.76
2022-11-28T08:00:09.729Z,2.59
2022-11-28T08:02:40.766Z,2.45
2022-11-28T08:05:09.594Z,2.41
2022-11-28T08:07:37.967Z,2.39
2022-11-28T08:10:07.317Z,2.37
2022-11-28T08:12:35.581Z,2.42
2022-11-28T08:15:04.108Z,2.47
2022-11-28T08:17:34.515Z,2.54
2022-11-28T08:20:02.855Z,2.64
2022-11-28T08:22:31.115Z,2.69
2022-11-28T08:24:59.620Z,2.74
2022-11-28T08:27:27.887Z,2.74
2022-11-28T08:29:56.070Z,2.72
2022-11-28T08:32:24.358Z,2.74
2022-11-28T08:34:52.646Z,2.81
2022-11-28T08:37:20.793Z,2.82
2022-11-28T08:39:48.992Z,2.81
2022-11-28T08:42:17.231Z,2.82
2022-11-28T08:44:45.470Z,2.84
2022-11-28T08:47:13.741Z,2.90
2022-11-28T08:49:42.280Z,2.98
2022-11-28T08:52:11.136Z,2.99
2022-11-28T08:54:39.487Z,2.99
2022-11-28T08:57:07.968Z,2.93
2022-11-28T08:59:38.855Z,2.88
2022-11-28T09:02:11.139Z,2.81
2022-11-28T09:04:39.700Z,2.81
2022-11-28T09:07:08.081Z,2.83
2022-11-28T09:09:36.345Z,2.92
2022-11-28T09:12:04.943Z,3.01
2022-11-28T09:14:33.198Z,3.07
2022-11-28T09:17:01.560Z,3.10
2022-11-28T09:19:29.908Z,3.06
2022-11-28T09:21:58.215Z,3.08
2022-11-28T09:24:26.427Z,3.13
2022-11-28T09:26:55.019Z,3.03
2022-11-28T09:29:23.192Z,2.90
2022-11-28T09:31:51.674Z,2.85
2022-11-28T09:34:20.055Z,2.86
2022-11-28T09:36:50.241Z,2.89
2022-11-28T09:39:18.562Z,2.97
2022-11-28T09:41:52.841Z,3.04
2022-11-28T09:44:33.772Z,3.12
2022-11-28T09:47:06.870Z,3.21
2022-11-28T09:49:48.603Z,3.24
2022-11-28T09:52:26.323Z,3.17
2022-11-28T09:55:17.190Z,3.14
2022-11-28T09:57:51.284Z,3.10
2022-11-28T10:00:32.992Z,3.13
2022-11-28T10:03:30.714Z,3.19
2022-11-28T10:06:12.816Z,3.25
2022-11-28T10:09:05.524Z,3.30
2022-11-28T10:11:54.663Z,3.35
2022-11-28T10:15:07.636Z,3.34
2022-11-28T10:17:48.852Z,3.29
2022-11-28T10:20:27.853Z,3.28
2022-11-28T10:23:22.315Z,3.27
2022-11-28T10:26:04.958Z,3.28
2022-11-28T10:28:37.244Z,3.20
2022-11-28T10:31:09.145Z,3.18
2022-11-28T10:33:45.077Z,3.19
2022-11-28T10:36:23.534Z,3.15
2022-11-28T10:38:51.907Z,3.15
2022-11-28T10:42:11.966Z,3.16
2022-11-28T10:45:14.280Z,3.04
2022-11-28T10:47:45.482Z,2.98
2022-11-28T10:50:20.352Z,2.93
2022-11-28T10:53:00.818Z,2.98
2022-11-28T10:55:50.072Z,3.05
2022-11-28T10:58:31.373Z,3.13
2022-11-28T11:01:00.466Z,3.16
2022-11-28T11:03:32.837Z,3.17
2022-11-28T11:06:01.021Z,3.19
2022-11-28T11:08:34.670Z,3.08
2022-11-28T11:11:04.994Z,2.91
2022-11-28T11:13:54.894Z,2.85
2022-11-28T11:16:23.449Z,2.81
2022-11-28T11:18:54.005Z,2.75
2022-11-28T11:21:27.750Z,2.74
2022-11-28T11:24:16.941Z,2.84
2022-11-28T11:26:48.897Z,2.90
2022-11-28T11:29:22.805Z,2.97
2022-11-28T11:31:53.417Z,3.07
2022-11-28T11:34:24.159Z,3.15
2022-11-28T11:37:16.680Z,3.21
2022-11-28T11:39:52.897Z,3.27
2022-11-28T11:42:23.885Z,3.30
2022-11-28T11:44:54.367Z,3.35
2022-11-28T11:47:42.423Z,3.42
2022-11-28T11:50:21.081Z,3.48
2022-11-28T11:53:15.104Z,3.47
2022-11-28T11:55:52.883Z,3.50
2022-11-28T11:58:29.208Z,3.55
2022-11-28T12:00:59.886Z,3.54
2022-11-28T12:03:40.188Z,3.44
2022-11-28T12:06:20.768Z,3.33
2022-11-28T12:09:07.774Z,3.28
2022-11-28T12:11:45.614Z,3.25
2022-11-28T12:14:32.125Z,3.14
2022-11-28T12:17:25.717Z,3.01
2022-11-28T12:20:30.884Z,2.88
2022-11-28T12:23:17.737Z,2.80
2022-11-28T12:25:53.253Z,2.70
2022-11-28T12:28:43.640Z,2.64
2022-11-28T12:31:24.990Z,2.62
2022-11-28T12:34:04.941Z,2.61
2022-11-28T12:36:51.484Z,2.57
2022-11-28T12:39:38.504Z,2.55
2022-11-28T12:42:28.282Z,2.52
2022-11-28T12:45:18.835Z,2.57
2022-11-28T12:48:04.337Z,2.65
2022-11-28T12:50:38.155Z,2.73
2022-11-28T12:53:44.452Z,2.80
2022-11-28T12:56:37.069Z,2.78
2022-11-28T12:59:45.507Z,2.77
2022-11-28T13:02:46.549Z,2.84
2022-11-28T13:05:15.064Z,2.84
2022-11-28T13:08:00.395Z,2.77
2022-11-28T13:11:03.398Z,2.74
2022-11-28T13:13:46.145Z,2.76
2022-11-28T13:16:34.670Z,2.71
2022-11-28T13:19:28.635Z,2.72
2022-11-28T13:22:03.175Z,2.69
2022-11-28T13:25:04.183Z,2.72
2022-11-28T13:27:51.189Z,2.80
2022-11-28T13:30:24.821Z,2.82
2022-11-28T13:33:25.360Z,2.81
2022-11-28T13:35:54.327Z,2.79
2022-11-28T13:39:11.320Z,2.80
2022-11-28T13:42:36.076Z,2.82
2022-11-28T13:44:58.380Z,2.80
2022-11-28T13:47:28.208Z,2.79
2022-11-28T13:50:25.161Z,2.80
2022-11-28T13:53:10.535Z,2.85
2022-11-28T13:55:50.423Z,2.80
2022-11-28T13:58:30.027Z,2.77
2022-11-28T14:01:22.318Z,2.77
2022-11-28T14:04:02.927Z,2.72
2022-11-28T14:06:49.003Z,2.73
2022-11-28T14:09:17.224Z,2.80
2022-11-28T14:12:15.256Z,2.84
2022-11-28T14:15:08.641Z,2.82
2022-11-28T14:17:59.754Z,2.80
2022-11-28T14:20:43.065Z,2.78
2022-11-28T14:23:40.792Z,2.77
2022-11-28T14:26:25.956Z,2.77
2022-11-28T14:28:54.540Z,2.65
2022-11-28T14:31:34.480Z,2.55
2022-11-28T14:34:11.226Z,2.60
2022-11-28T14:36:42.172Z,2.63
2022-11-28T14:39:13.113Z,2.61
2022-11-28T14:42:04.388Z,2.61
2022-11-28T14:45:03.227Z,2.56
2022-11-28T14:47:39.501Z,2.56
2022-11-28T14:50:09.565Z,2.52
2022-11-28T14:52:40.312Z,2.48
2022-11-28T14:55:10.100Z,2.47
2022-11-28T14:57:53.005Z,2.49
2022-11-28T15:00:50.022Z,2.47
2022-11-28T15:03:45.104Z,2.45
2022-11-28T15:06:20.861Z,2.39
2022-11-28T15:09:12.924Z,2.36
2022-11-28T15:11:58.893Z,2.40
2022-11-28T15:14:31.661Z,2.42
2022-11-28T15:17:06.291Z,2.42
2022-11-28T15:19:38.659Z,2.43
2022-11-28T15:22:06.954Z,2.51
2022-11-28T15:24:38.384Z,2.53
2022-11-28T15:27:09.981Z,2.59
2022-11-28T15:29:38.813Z,2.63
2022-11-28T15:32:07.316Z,2.58
2022-11-28T15:34:37.944Z,2.51
2022-11-28T15:37:15.406Z,2.35
2022-11-28T15:39:47.635Z,2.27
2022-11-28T15:42:36.576Z,2.30
2022-11-28T15:45:18.685Z,2.26
2022-11-28T15:47:49.287Z,2.19
2022-11-28T15:50:25.210Z,2.12
2022-11-28T15:52:57.081Z,2.00
2022-11-28T15:55:27.724Z,1.95
2022-11-28T15:58:21.050Z,2.01
2022-11-28T16:00:57.147Z,2.04
2022-11-28T16:03:29.145Z,2.08
2022-11-28T16:05:58.910Z,2.13
2022-11-28T16:08:31.626Z,2.10
2022-11-28T16:11:03.377Z,2.09
2022-11-28T16:13:33.461Z,2.15
2022-11-28T16:16:04.233Z,2.20
2022-11-28T16:18:32.813Z,2.27
2022-11-28T16:21:01.944Z,2.32
2022-11-28T16:23:35.097Z,2.37
2022-11-28T16:26:29.524Z,2.40
2022-11-28T16:29:06.956Z,2.47
2022-11-28T16:31:35.908Z,2.51
2022-11-28T16:34:04.232Z,2.54
2022-11-28T16:36:37.658Z,2.60
2022-11-28T16:39:12.059Z,2.65
2022-11-28T16:41:48.168Z,2.68
2022-11-28T16:44:22.128Z,2.65
2022-11-28T16:47:00.338Z,2.60
2022-11-28T16:49:45.097Z,2.57
2022-11-28T16:52:28.640Z,2.54
2022-11-28T16:55:00.814Z,2.55
2022-11-28T16:57:46.619Z,2.62
2022-11-28T17:00:15.380Z,2.68
2022-11-28T17:02:43.820Z,2.73
2022-11-28T17:05:12.095Z,2.78
2022-11-28T17:07:40.279Z,2.80
2022-11-28T17:10:12.940Z,2.84
2022-11-28T17:12:41.557Z,2.88
2022-11-28T17:15:16.696Z,2.92
2022-11-28T17:17:45.595Z,2.95
2022-11-28T17:20:15.411Z,2.98
2022-11-28T17:22:47.057Z,3.02
2022-11-28T17:25:18.835Z,3.05
2022-11-28T17:27:50.678Z,3.07
2022-11-28T17:30:19.672Z,3.10
2022-11-28T17:32:48.660Z,3.11
2022-11-28T17:35:21.694Z,3.12
2022-11-28T17:37:50.256Z,3.12
2022-11-28T17:40:33.798Z,3.13
2022-11-28T17:43:03.589Z,3.14
2022-11-28T17:45:35.138Z,3.15
2022-11-28T17:48:03.729Z,3.16
2022-11-28T17:50:32.024Z,3.19
2022-11-28T17:53:00.671Z,3.22
2022-11-28T17:55:30.175Z,3.23
2022-11-28T17:57:59.193Z,3.23
2022-11-28T18:00:29.289Z,3.24
2022-11-28T18:02:57.839Z,3.27
2022-11-28T18:05:26.838Z,3.27
2022-11-28T18:07:55.091Z,3.29
2022-11-28T18:10:23.439Z,3.32
2022-11-28T18:12:51.741Z,3.34
2022-11-28T18:15:20.073Z,3.36
2022-11-28T18:17:48.555Z,3.39
2022-11-28T18:20:17.026Z,3.41
2022-11-28T18:22:45.195Z,3.44
2022-11-28T18:25:14.076Z,3.45
2022-11-28T18:27:42.609Z,3.43
2022-11-28T18:30:13.641Z,3.40
2022-11-28T18:32:42.081Z,3.40
2022-11-28T18:35:11.224Z,3.40
2022-11-28T18:37:40.491Z,3.41
2022-11-28T18:40:09.783Z,3.41
2022-11-28T18:42:39.088Z,3.41
2022-11-28T18:45:09.524Z,3.38
2022-11-28T18:47:38.199Z,3.35
2022-11-28T18:50:07.658Z,3.36
2022-11-28T18:52:36.705Z,3.39
2022-11-28T18:55:06.853Z,3.41
2022-11-28T18:57:36.425Z,3.41
2022-11-28T19:00:06.448Z,3.42
2022-11-28T19:02:35.273Z,3.43
2022-11-28T19:05:04.894Z,3.42
2022-11-28T19:07:33.838Z,3.44
2022-11-28T19:10:03.572Z,3.47
2022-11-28T19:12:31.756Z,3.46
2022-11-28T19:15:02.368Z,3.48
2022-11-28T19:17:31.373Z,3.49
2022-11-28T19:19:59.708Z,3.49
2022-11-28T19:22:28.089Z,3.52
2022-11-28T19:24:58.156Z,3.56
2022-11-28T19:27:26.675Z,3.58
2022-11-28T19:29:54.900Z,3.61
2022-11-28T19:32:24.131Z,3.62
2022-11-28T19:34:53.680Z,3.61
2022-11-28T19:37:21.873Z,3.61
2022-11-28T19:39:50.220Z,3.60
2022-11-28T19:42:19.069Z,3.60
2022-11-28T19:44:47.345Z,3.60
2022-11-28T19:47:15.899Z,3.60
2022-11-28T19:49:44.362Z,3.56
2022-11-28T19:52:12.788Z,3.51
2022-11-28T19:54:41.996Z,3.51
2022-11-28T19:57:11.466Z,3.52
2022-11-28T19:59:39.823Z,3.54
2022-11-28T20:02:09.525Z,3.53
2022-11-28T20:04:40.464Z,3.52
2022-11-28T20:07:08.656Z,3.53
2022-11-28T20:09:37.604Z,3.51
2022-11-28T20:12:05.942Z,3.52
2022-11-28T20:14:35.141Z,3.50
2022-11-28T20:17:05.260Z,3.47
2022-11-28T20:19:34.477Z,3.42
2022-11-28T20:22:02.626Z,3.39
2022-11-28T20:24:31.079Z,3.39
2022-11-28T20:26:59.497Z,3.41
2022-11-28T20:29:28.742Z,3.44
2022-11-28T20:31:57.442Z,3.47
2022-11-28T20:34:27.608Z,3.44
2022-11-28T20:36:55.924Z,3.42
2022-11-28T20:39:25.858Z,3.43
2022-11-28T20:41:54.425Z,3.43
2022-11-28T20:44:22.756Z,3.41
2022-11-28T20:46:51.417Z,3.36
2022-11-28T20:49:19.670Z,3.28
2022-11-28T20:51:47.988Z,3.26
2022-11-28T20:54:16.755Z,3.27
2022-11-28T20:57:19.833Z,3.28
2022-11-28T20:59:33.918Z,3.27
2022-11-28T21:02:02.366Z,3.28
2022-11-28T21:04:31.547Z,3.32
2022-11-28T21:06:59.790Z,3.29
2022-11-28T21:09:28.292Z,3.25
2022-11-28T21:11:59.272Z,3.25
2022-11-28T21:14:29.071Z,3.29
2022-11-28T21:16:58.988Z,3.33
2022-11-28T21:19:27.764Z,3.34
2022-11-28T21:21:56.171Z,3.36
2022-11-28T21:24:24.514Z,3.41
2022-11-28T21:26:54.707Z,3.44
2022-11-28T21:29:24.696Z,3.46
2022-11-28T21:31:53.705Z,3.47
2022-11-28T21:34:22.992Z,3.45
2022-11-28T21:36:51.570Z,3.45
2022-11-28T21:39:20.903Z,3.41
2022-11-28T21:41:51.176Z,3.38
2022-11-28T21:44:20.286Z,3.31
2022-11-28T21:46:48.912Z,3.31
2022-11-28T21:49:17.870Z,3.34
2022-11-28T21:51:46.242Z,3.34
2022-11-28T21:54:14.942Z,3.31
2022-11-28T21:56:46.209Z,3.27
2022-11-28T21:59:14.711Z,3.19
2022-11-28T22:01:43.460Z,3.17
2022-11-28T22:04:12.010Z,3.17
2022-11-28T22:06:40.717Z,3.18
2022-11-28T22:09:10.130Z,3.16
2022-11-28T22:11:40.259Z,3.14
2022-11-28T22:14:08.637Z,3.12
2022-11-28T22:16:37.543Z,3.14
2022-11-28T22:19:05.892Z,3.19
2022-11-28T22:21:52.984Z,3.20
2022-11-28T22:24:23.320Z,3.21
2022-11-28T22:26:52.604Z,3.16
2022-11-28T22:29:20.858Z,3.17
2022-11-28T22:31:50.501Z,3.21
2022-11-28T22:34:19.696Z,3.20
2022-11-28T22:36:47.911Z,3.23
2022-11-28T22:39:16.227Z,3.26
2022-11-28T22:41:44.537Z,3.26
2022-11-28T22:44:12.793Z,3.27
2022-11-28T22:46:41.047Z,3.29
2022-11-28T22:49:11.687Z,3.24
2022-11-28T22:51:40.832Z,3.18
2022-11-28T22:54:12.228Z,3.12
2022-11-28T22:56:41.040Z,3.08
2022-11-28T22:59:14.741Z,3.09
2022-11-28T23:01:43.766Z,3.11
2022-11-28T23:04:12.790Z,3.14
2022-11-28T23:06:41.656Z,3.17
2022-11-28T23:12:01.384Z,3.12
2022-11-28T23:14:30.471Z,3.10
2022-11-28T23:17:00.060Z,3.11
2022-11-28T23:19:31.924Z,3.13
2022-11-28T23:22:00.224Z,3.09
2022-11-28T23:24:28.492Z,3.10
2022-11-28T23:26:57.028Z,3.11
2022-11-28T23:29:25.365Z,3.06
2022-11-28T23:31:53.611Z,3.02
2022-11-28T23:34:22.196Z,3.03
2022-11-28T23:36:50.457Z,3.02
2022-11-28T23:39:21.395Z,2.98
2022-11-28T23:41:50.516Z,3.02
2022-11-28T23:44:19.939Z,3.06
2022-11-28T23:46:49.251Z,3.03
2022-11-28T23:49:18.090Z,3.05
2022-11-28T23:51:46.354Z,3.08
2022-11-28T23:54:14.817Z,3.08
2022-11-28T23:56:43.850Z,3.09
2022-11-28T23:59:12.793Z,3.01
